sensor_id;sensor_type;location;lat;lon;timestamp;temperature;humidity
13569;DHT22;6856;51.460;7.158;2023-03-01T00:01:55;2.90;51.80
13569;DHT22;6856;51.460;7.158;2023-03-01T00:04:30;2.90;51.90
13569;DHT22;6856;51.460;7.158;2023-03-01T00:07:04;2.80;51.90
13569;DHT22;6856;51.460;7.158;2023-03-01T00:09:38;2.80;52.00
13569;DHT22;6856;51.460;7.158;2023-03-01T00:12:12;2.90;52.20
13569;DHT22;6856;51.460;7.158;2023-03-01T00:14:46;2.80;52.10
13569;DHT22;6856;51.460;7.158;2023-03-01T00:17:20;2.90;52.20
13569;DHT22;6856;51.460;7.158;2023-03-01T00:19:55;2.70;52.20
13569;DHT22;6856;51.460;7.158;2023-03-01T00:22:29;2.70;52.30
13569;DHT22;6856;51.460;7.158;2023-03-01T00:25:03;2.70;52.30
13569;DHT22;6856;51.460;7.158;2023-03-01T00:27:37;2.70;52.50
13569;DHT22;6856;51.460;7.158;2023-03-01T00:30:11;2.60;52.50
13569;DHT22;6856;51.460;7.158;2023-03-01T00:32:45;2.60;52.60
13569;DHT22;6856;51.460;7.158;2023-03-01T00:35:20;2.60;52.60
13569;DHT22;6856;51.460;7.158;2023-03-01T00:37:54;2.60;52.60
13569;DHT22;6856;51.460;7.158;2023-03-01T00:40:31;2.60;52.60
13569;DHT22;6856;51.460;7.158;2023-03-01T00:43:06;2.60;52.70
13569;DHT22;6856;51.460;7.158;2023-03-01T00:45:42;2.50;52.60
13569;DHT22;6856;51.460;7.158;2023-03-01T00:48:15;2.50;52.60
13569;DHT22;6856;51.460;7.158;2023-03-01T00:50:51;2.50;52.70
13569;DHT22;6856;51.460;7.158;2023-03-01T00:53:25;2.70;52.80
13569;DHT22;6856;51.460;7.158;2023-03-01T00:55:59;2.50;52.70
13569;DHT22;6856;51.460;7.158;2023-03-01T00:58:33;2.40;52.70
13569;DHT22;6856;51.460;7.158;2023-03-01T01:01:08;2.40;52.80
13569;DHT22;6856;51.460;7.158;2023-03-01T01:03:51;2.40;52.80
13569;DHT22;6856;51.460;7.158;2023-03-01T01:06:30;2.40;52.90
13569;DHT22;6856;51.460;7.158;2023-03-01T01:09:07;2.40;52.90
13569;DHT22;6856;51.460;7.158;2023-03-01T01:11:41;2.30;52.80
13569;DHT22;6856;51.460;7.158;2023-03-01T01:14:15;2.30;52.80
13569;DHT22;6856;51.460;7.158;2023-03-01T01:16:50;2.30;52.80
13569;DHT22;6856;51.460;7.158;2023-03-01T01:19:25;2.20;52.70
13569;DHT22;6856;51.460;7.158;2023-03-01T01:22:00;2.20;52.70
13569;DHT22;6856;51.460;7.158;2023-03-01T01:24:36;2.20;52.70
13569;DHT22;6856;51.460;7.158;2023-03-01T01:27:10;2.20;52.70
13569;DHT22;6856;51.460;7.158;2023-03-01T01:29:43;2.20;52.70
13569;DHT22;6856;51.460;7.158;2023-03-01T01:32:17;2.20;52.80
13569;DHT22;6856;51.460;7.158;2023-03-01T01:34:51;2.20;52.90
13569;DHT22;6856;51.460;7.158;2023-03-01T01:37:26;2.10;53.30
13569;DHT22;6856;51.460;7.158;2023-03-01T01:40:03;2.10;52.80
13569;DHT22;6856;51.460;7.158;2023-03-01T01:42:38;2.10;52.90
13569;DHT22;6856;51.460;7.158;2023-03-01T01:45:31;2.10;52.80
13569;DHT22;6856;51.460;7.158;2023-03-01T01:48:16;2.00;53.00
13569;DHT22;6856;51.460;7.158;2023-03-01T01:50:56;2.30;53.00
13569;DHT22;6856;51.460;7.158;2023-03-01T01:53:35;2.00;52.80
13569;DHT22;6856;51.460;7.158;2023-03-01T01:56:12;2.00;52.90
13569;DHT22;6856;51.460;7.158;2023-03-01T01:58:48;2.00;53.00
13569;DHT22;6856;51.460;7.158;2023-03-01T02:01:23;2.00;53.00
13569;DHT22;6856;51.460;7.158;2023-03-01T02:03:57;1.90;53.00
13569;DHT22;6856;51.460;7.158;2023-03-01T02:06:35;1.90;53.10
13569;DHT22;6856;51.460;7.158;2023-03-01T02:09:16;1.90;53.00
13569;DHT22;6856;51.460;7.158;2023-03-01T02:11:53;1.90;53.10
13569;DHT22;6856;51.460;7.158;2023-03-01T02:14:27;2.10;53.20
13569;DHT22;6856;51.460;7.158;2023-03-01T02:17:02;1.80;53.20
13569;DHT22;6856;51.460;7.158;2023-03-01T02:19:44;1.80;53.20
13569;DHT22;6856;51.460;7.158;2023-03-01T02:22:31;1.80;53.40
13569;DHT22;6856;51.460;7.158;2023-03-01T02:25:21;1.80;53.30
13569;DHT22;6856;51.460;7.158;2023-03-01T02:28:05;2.00;53.50
13569;DHT22;6856;51.460;7.158;2023-03-01T02:30:47;2.00;54.00
13569;DHT22;6856;51.460;7.158;2023-03-01T02:33:41;1.70;53.50
13569;DHT22;6856;51.460;7.158;2023-03-01T02:36:19;1.70;53.50
13569;DHT22;6856;51.460;7.158;2023-03-01T02:38:59;2.00;53.70
13569;DHT22;6856;51.460;7.158;2023-03-01T02:41:36;1.70;53.90
13569;DHT22;6856;51.460;7.158;2023-03-01T02:44:11;1.70;53.50
13569;DHT22;6856;51.460;7.158;2023-03-01T02:46:49;1.70;53.50
13569;DHT22;6856;51.460;7.158;2023-03-01T02:49:26;1.70;53.70
13569;DHT22;6856;51.460;7.158;2023-03-01T02:52:21;1.60;53.60
13569;DHT22;6856;51.460;7.158;2023-03-01T02:55:03;1.60;53.80
13569;DHT22;6856;51.460;7.158;2023-03-01T02:57:43;1.60;53.80
13569;DHT22;6856;51.460;7.158;2023-03-01T03:00:25;1.60;53.80
13569;DHT22;6856;51.460;7.158;2023-03-01T03:03:07;1.60;53.90
13569;DHT22;6856;51.460;7.158;2023-03-01T03:05:42;1.60;53.90
13569;DHT22;6856;51.460;7.158;2023-03-01T03:08:17;1.60;54.00
13569;DHT22;6856;51.460;7.158;2023-03-01T03:10:56;1.60;53.90
13569;DHT22;6856;51.460;7.158;2023-03-01T03:13:31;1.60;53.90
13569;DHT22;6856;51.460;7.158;2023-03-01T03:16:05;1.90;54.10
13569;DHT22;6856;51.460;7.158;2023-03-01T03:18:41;1.60;54.00
13569;DHT22;6856;51.460;7.158;2023-03-01T03:21:15;1.60;54.00
13569;DHT22;6856;51.460;7.158;2023-03-01T03:23:50;1.60;54.10
13569;DHT22;6856;51.460;7.158;2023-03-01T03:26:23;1.60;54.10
13569;DHT22;6856;51.460;7.158;2023-03-01T03:28:58;1.60;54.10
13569;DHT22;6856;51.460;7.158;2023-03-01T03:31:32;1.60;54.20
13569;DHT22;6856;51.460;7.158;2023-03-01T03:34:09;1.60;54.30
13569;DHT22;6856;51.460;7.158;2023-03-01T03:36:53;1.90;54.30
13569;DHT22;6856;51.460;7.158;2023-03-01T03:39:31;1.60;54.20
13569;DHT22;6856;51.460;7.158;2023-03-01T03:42:06;1.60;54.20
13569;DHT22;6856;51.460;7.158;2023-03-01T03:44:42;1.50;54.10
13569;DHT22;6856;51.460;7.158;2023-03-01T03:47:16;1.50;54.10
13569;DHT22;6856;51.460;7.158;2023-03-01T03:49:51;1.80;54.30
13569;DHT22;6856;51.460;7.158;2023-03-01T03:52:26;1.50;54.20
13569;DHT22;6856;51.460;7.158;2023-03-01T03:54:59;1.70;54.30
13569;DHT22;6856;51.460;7.158;2023-03-01T03:57:34;1.50;54.30
13569;DHT22;6856;51.460;7.158;2023-03-01T04:00:10;1.50;54.20
13569;DHT22;6856;51.460;7.158;2023-03-01T04:02:47;1.50;54.20
13569;DHT22;6856;51.460;7.158;2023-03-01T04:05:23;1.50;54.10
13569;DHT22;6856;51.460;7.158;2023-03-01T04:07:57;1.50;54.10
13569;DHT22;6856;51.460;7.158;2023-03-01T04:10:37;1.50;54.10
13569;DHT22;6856;51.460;7.158;2023-03-01T04:13:13;1.50;54.10
13569;DHT22;6856;51.460;7.158;2023-03-01T04:15:48;1.40;54.00
13569;DHT22;6856;51.460;7.158;2023-03-01T04:18:23;1.40;54.00
13569;DHT22;6856;51.460;7.158;2023-03-01T04:21:00;1.50;54.00
13569;DHT22;6856;51.460;7.158;2023-03-01T04:23:34;1.40;53.90
13569;DHT22;6856;51.460;7.158;2023-03-01T04:26:09;1.30;53.90
13569;DHT22;6856;51.460;7.158;2023-03-01T04:28:43;1.30;53.90
13569;DHT22;6856;51.460;7.158;2023-03-01T04:31:20;1.30;53.90
13569;DHT22;6856;51.460;7.158;2023-03-01T04:33:55;0.90;53.70
13569;DHT22;6856;51.460;7.158;2023-03-01T04:36:31;1.30;53.90
13569;DHT22;6856;51.460;7.158;2023-03-01T04:39:08;1.20;53.90
13569;DHT22;6856;51.460;7.158;2023-03-01T04:41:44;1.20;53.80
13569;DHT22;6856;51.460;7.158;2023-03-01T04:44:18;1.20;53.80
13569;DHT22;6856;51.460;7.158;2023-03-01T04:46:55;1.20;54.30
13569;DHT22;6856;51.460;7.158;2023-03-01T04:49:28;1.40;53.90
13569;DHT22;6856;51.460;7.158;2023-03-01T04:52:04;1.10;53.80
13569;DHT22;6856;51.460;7.158;2023-03-01T04:54:38;1.10;53.70
13569;DHT22;6856;51.460;7.158;2023-03-01T04:57:12;1.10;53.80
13569;DHT22;6856;51.460;7.158;2023-03-01T04:59:46;1.10;53.80
13569;DHT22;6856;51.460;7.158;2023-03-01T05:02:21;1.10;53.90
13569;DHT22;6856;51.460;7.158;2023-03-01T05:04:55;1.00;54.00
13569;DHT22;6856;51.460;7.158;2023-03-01T05:07:31;1.10;54.20
13569;DHT22;6856;51.460;7.158;2023-03-01T05:10:05;1.10;54.80
13569;DHT22;6856;51.460;7.158;2023-03-01T05:12:40;1.10;54.50
13569;DHT22;6856;51.460;7.158;2023-03-01T05:15:13;1.40;54.70
13569;DHT22;6856;51.460;7.158;2023-03-01T05:17:48;1.10;54.40
13569;DHT22;6856;51.460;7.158;2023-03-01T05:20:22;1.00;55.10
13569;DHT22;6856;51.460;7.158;2023-03-01T05:22:59;1.10;54.60
13569;DHT22;6856;51.460;7.158;2023-03-01T05:25:38;1.10;54.60
13569;DHT22;6856;51.460;7.158;2023-03-01T05:28:13;1.10;54.50
13569;DHT22;6856;51.460;7.158;2023-03-01T05:30:47;1.10;54.50
13569;DHT22;6856;51.460;7.158;2023-03-01T05:33:24;1.10;54.60
13569;DHT22;6856;51.460;7.158;2023-03-01T05:35:59;1.10;54.60
13569;DHT22;6856;51.460;7.158;2023-03-01T05:38:35;1.10;54.60
13569;DHT22;6856;51.460;7.158;2023-03-01T05:41:14;1.10;54.50
13569;DHT22;6856;51.460;7.158;2023-03-01T05:43:52;1.10;54.60
13569;DHT22;6856;51.460;7.158;2023-03-01T05:46:30;1.10;54.50
13569;DHT22;6856;51.460;7.158;2023-03-01T05:49:04;1.10;54.60
13569;DHT22;6856;51.460;7.158;2023-03-01T05:51:38;1.10;54.60
13569;DHT22;6856;51.460;7.158;2023-03-01T05:54:14;1.10;54.70
13569;DHT22;6856;51.460;7.158;2023-03-01T05:56:48;1.10;54.90
13569;DHT22;6856;51.460;7.158;2023-03-01T05:59:22;1.10;54.90
13569;DHT22;6856;51.460;7.158;2023-03-01T06:01:56;1.10;54.90
13569;DHT22;6856;51.460;7.158;2023-03-01T06:04:30;1.10;54.90
13569;DHT22;6856;51.460;7.158;2023-03-01T06:07:04;1.10;54.80
13569;DHT22;6856;51.460;7.158;2023-03-01T06:09:39;1.10;54.80
13569;DHT22;6856;51.460;7.158;2023-03-01T06:12:13;1.00;54.70
13569;DHT22;6856;51.460;7.158;2023-03-01T06:14:47;1.00;54.70
13569;DHT22;6856;51.460;7.158;2023-03-01T06:17:21;1.00;54.70
13569;DHT22;6856;51.460;7.158;2023-03-01T06:19:55;1.00;54.70
13569;DHT22;6856;51.460;7.158;2023-03-01T06:22:30;1.00;54.80
13569;DHT22;6856;51.460;7.158;2023-03-01T06:25:06;1.00;54.80
13569;DHT22;6856;51.460;7.158;2023-03-01T06:27:41;1.00;55.00
13569;DHT22;6856;51.460;7.158;2023-03-01T06:30:17;1.00;55.00
13569;DHT22;6856;51.460;7.158;2023-03-01T06:32:55;1.00;55.00
13569;DHT22;6856;51.460;7.158;2023-03-01T06:35:33;1.00;55.20
13569;DHT22;6856;51.460;7.158;2023-03-01T06:38:08;1.00;55.30
13569;DHT22;6856;51.460;7.158;2023-03-01T06:40:45;0.90;55.40
13569;DHT22;6856;51.460;7.158;2023-03-01T06:43:24;0.90;55.50
13569;DHT22;6856;51.460;7.158;2023-03-01T06:45:58;1.00;55.50
13569;DHT22;6856;51.460;7.158;2023-03-01T06:48:32;0.90;55.60
13569;DHT22;6856;51.460;7.158;2023-03-01T06:51:06;1.00;55.80
13569;DHT22;6856;51.460;7.158;2023-03-01T06:53:40;1.00;55.90
13569;DHT22;6856;51.460;7.158;2023-03-01T06:56:16;0.90;56.00
13569;DHT22;6856;51.460;7.158;2023-03-01T06:58:49;1.00;55.90
13569;DHT22;6856;51.460;7.158;2023-03-01T07:01:24;1.00;56.00
13569;DHT22;6856;51.460;7.158;2023-03-01T07:03:58;1.00;56.10
13569;DHT22;6856;51.460;7.158;2023-03-01T07:06:33;1.00;56.30
13569;DHT22;6856;51.460;7.158;2023-03-01T07:09:09;1.10;56.20
13569;DHT22;6856;51.460;7.158;2023-03-01T07:11:45;1.10;56.60
13569;DHT22;6856;51.460;7.158;2023-03-01T07:14:19;1.10;56.70
13569;DHT22;6856;51.460;7.158;2023-03-01T07:16:54;1.10;56.70
13569;DHT22;6856;51.460;7.158;2023-03-01T07:19:28;1.10;56.90
13569;DHT22;6856;51.460;7.158;2023-03-01T07:22:03;1.20;56.90
13569;DHT22;6856;51.460;7.158;2023-03-01T07:24:40;1.20;56.90
13569;DHT22;6856;51.460;7.158;2023-03-01T07:27:16;1.30;57.00
13569;DHT22;6856;51.460;7.158;2023-03-01T07:29:52;1.30;57.10
13569;DHT22;6856;51.460;7.158;2023-03-01T07:32:25;1.40;57.10
13569;DHT22;6856;51.460;7.158;2023-03-01T07:34:59;1.40;57.20
13569;DHT22;6856;51.460;7.158;2023-03-01T07:37:33;1.50;57.20
13569;DHT22;6856;51.460;7.158;2023-03-01T07:40:08;1.50;57.20
13569;DHT22;6856;51.460;7.158;2023-03-01T07:42:45;1.60;57.30
13569;DHT22;6856;51.460;7.158;2023-03-01T07:45:19;1.70;57.30
13569;DHT22;6856;51.460;7.158;2023-03-01T07:47:53;1.70;57.30
13569;DHT22;6856;51.460;7.158;2023-03-01T07:50:28;1.80;57.30
13569;DHT22;6856;51.460;7.158;2023-03-01T07:53:02;1.80;57.30
13569;DHT22;6856;51.460;7.158;2023-03-01T07:55:36;2.00;57.30
13569;DHT22;6856;51.460;7.158;2023-03-01T07:58:13;2.00;57.20
13569;DHT22;6856;51.460;7.158;2023-03-01T08:00:47;2.10;57.30
13569;DHT22;6856;51.460;7.158;2023-03-01T08:03:20;2.10;57.10
13569;DHT22;6856;51.460;7.158;2023-03-01T08:05:54;2.20;57.10
13569;DHT22;6856;51.460;7.158;2023-03-01T08:08:28;2.30;57.20
13569;DHT22;6856;51.460;7.158;2023-03-01T08:11:05;2.40;57.20
13569;DHT22;6856;51.460;7.158;2023-03-01T08:13:42;2.40;57.10
13569;DHT22;6856;51.460;7.158;2023-03-01T08:16:16;2.60;57.10
13569;DHT22;6856;51.460;7.158;2023-03-01T08:18:51;2.60;56.90
13569;DHT22;6856;51.460;7.158;2023-03-01T08:21:27;2.70;56.80
13569;DHT22;6856;51.460;7.158;2023-03-01T08:24:01;2.80;56.80
13569;DHT22;6856;51.460;7.158;2023-03-01T08:26:38;2.90;56.80
13569;DHT22;6856;51.460;7.158;2023-03-01T08:29:15;3.00;56.70
13569;DHT22;6856;51.460;7.158;2023-03-01T08:31:49;3.00;56.70
13569;DHT22;6856;51.460;7.158;2023-03-01T08:34:23;3.20;57.30
13569;DHT22;6856;51.460;7.158;2023-03-01T08:36:57;3.20;56.70
13569;DHT22;6856;51.460;7.158;2023-03-01T08:39:31;3.30;56.70
13569;DHT22;6856;51.460;7.158;2023-03-01T08:42:05;3.50;56.60
13569;DHT22;6856;51.460;7.158;2023-03-01T08:44:40;3.50;57.00
13569;DHT22;6856;51.460;7.158;2023-03-01T08:47:16;3.70;56.30
13569;DHT22;6856;51.460;7.158;2023-03-01T08:49:50;3.80;56.30
13569;DHT22;6856;51.460;7.158;2023-03-01T08:52:24;3.90;56.20
13569;DHT22;6856;51.460;7.158;2023-03-01T08:54:59;4.00;56.20
13569;DHT22;6856;51.460;7.158;2023-03-01T08:57:34;4.10;56.10
13569;DHT22;6856;51.460;7.158;2023-03-01T09:00:12;4.20;55.90
13569;DHT22;6856;51.460;7.158;2023-03-01T09:02:48;4.30;55.70
13569;DHT22;6856;51.460;7.158;2023-03-01T09:05:21;4.40;55.40
13569;DHT22;6856;51.460;7.158;2023-03-01T09:07:57;4.50;55.20
13569;DHT22;6856;51.460;7.158;2023-03-01T09:10:31;4.60;55.00
13569;DHT22;6856;51.460;7.158;2023-03-01T09:13:04;4.70;54.80
13569;DHT22;6856;51.460;7.158;2023-03-01T09:15:41;4.80;54.80
13569;DHT22;6856;51.460;7.158;2023-03-01T09:18:15;4.90;54.50
13569;DHT22;6856;51.460;7.158;2023-03-01T09:20:49;5.00;54.40
13569;DHT22;6856;51.460;7.158;2023-03-01T09:23:22;5.10;54.50
13569;DHT22;6856;51.460;7.158;2023-03-01T09:25:56;5.20;54.30
13569;DHT22;6856;51.460;7.158;2023-03-01T09:28:30;5.30;54.00
13569;DHT22;6856;51.460;7.158;2023-03-01T09:31:07;5.40;53.80
13569;DHT22;6856;51.460;7.158;2023-03-01T09:33:41;5.50;53.60
13569;DHT22;6856;51.460;7.158;2023-03-01T09:36:18;5.50;53.30
13569;DHT22;6856;51.460;7.158;2023-03-01T09:38:52;5.60;53.20
13569;DHT22;6856;51.460;7.158;2023-03-01T09:41:40;5.70;53.20
13569;DHT22;6856;51.460;7.158;2023-03-01T09:44:35;5.80;53.00
13569;DHT22;6856;51.460;7.158;2023-03-01T09:47:17;5.90;52.70
13569;DHT22;6856;51.460;7.158;2023-03-01T09:49:58;6.30;52.70
13569;DHT22;6856;51.460;7.158;2023-03-01T09:52:41;6.00;52.40
13569;DHT22;6856;51.460;7.158;2023-03-01T09:55:23;6.10;52.50
13569;DHT22;6856;51.460;7.158;2023-03-01T09:58:15;6.20;52.30
13569;DHT22;6856;51.460;7.158;2023-03-01T10:01:23;6.30;52.30
13569;DHT22;6856;51.460;7.158;2023-03-01T10:04:28;6.50;52.10
13569;DHT22;6856;51.460;7.158;2023-03-01T10:07:27;6.60;51.70
13569;DHT22;6856;51.460;7.158;2023-03-01T10:10:07;6.70;51.50
13569;DHT22;6856;51.460;7.158;2023-03-01T10:12:42;6.70;51.20
13569;DHT22;6856;51.460;7.158;2023-03-01T10:15:20;6.80;50.90
13569;DHT22;6856;51.460;7.158;2023-03-01T10:18:01;6.90;50.90
13569;DHT22;6856;51.460;7.158;2023-03-01T10:20:46;6.90;50.70
13569;DHT22;6856;51.460;7.158;2023-03-01T10:23:24;7.00;51.00
13569;DHT22;6856;51.460;7.158;2023-03-01T10:26:27;7.10;50.60
13569;DHT22;6856;51.460;7.158;2023-03-01T10:29:12;7.20;50.10
13569;DHT22;6856;51.460;7.158;2023-03-01T10:31:49;7.30;50.30
13569;DHT22;6856;51.460;7.158;2023-03-01T10:34:29;7.40;50.20
13569;DHT22;6856;51.460;7.158;2023-03-01T10:37:12;7.40;50.10
13569;DHT22;6856;51.460;7.158;2023-03-01T10:39:58;7.50;49.80
13569;DHT22;6856;51.460;7.158;2023-03-01T10:42:47;7.60;49.60
13569;DHT22;6856;51.460;7.158;2023-03-01T10:45:32;7.70;49.50
13569;DHT22;6856;51.460;7.158;2023-03-01T10:48:12;7.70;49.40
13569;DHT22;6856;51.460;7.158;2023-03-01T10:50:49;7.80;49.80
13569;DHT22;6856;51.460;7.158;2023-03-01T10:53:28;7.90;49.30
13569;DHT22;6856;51.460;7.158;2023-03-01T10:56:07;8.20;49.40
13569;DHT22;6856;51.460;7.158;2023-03-01T10:58:58;8.10;49.30
13569;DHT22;6856;51.460;7.158;2023-03-01T11:01:34;8.20;49.00
13569;DHT22;6856;51.460;7.158;2023-03-01T11:04:12;8.30;49.20
13569;DHT22;6856;51.460;7.158;2023-03-01T11:06:58;8.40;49.00
13569;DHT22;6856;51.460;7.158;2023-03-01T11:09:34;8.50;48.80
13569;DHT22;6856;51.460;7.158;2023-03-01T11:12:14;8.50;48.70
13569;DHT22;6856;51.460;7.158;2023-03-01T11:14:51;8.60;48.50
13569;DHT22;6856;51.460;7.158;2023-03-01T11:17:29;8.70;48.40
13569;DHT22;6856;51.460;7.158;2023-03-01T11:20:29;8.80;48.30
13569;DHT22;6856;51.460;7.158;2023-03-01T11:23:10;8.90;48.10
13569;DHT22;6856;51.460;7.158;2023-03-01T11:25:51;8.90;47.90
13569;DHT22;6856;51.460;7.158;2023-03-01T11:28:29;9.00;47.80
13569;DHT22;6856;51.460;7.158;2023-03-01T11:31:05;9.10;47.90
13569;DHT22;6856;51.460;7.158;2023-03-01T11:33:43;9.10;47.70
13569;DHT22;6856;51.460;7.158;2023-03-01T11:36:29;9.20;47.60
13569;DHT22;6856;51.460;7.158;2023-03-01T11:39:20;9.20;47.40
13569;DHT22;6856;51.460;7.158;2023-03-01T11:42:06;9.30;47.30
13569;DHT22;6856;51.460;7.158;2023-03-01T11:44:54;9.40;47.30
13569;DHT22;6856;51.460;7.158;2023-03-01T11:47:43;9.40;47.40
13569;DHT22;6856;51.460;7.158;2023-03-01T11:50:36;9.80;47.70
13569;DHT22;6856;51.460;7.158;2023-03-01T11:56:28;9.70;46.90
13569;DHT22;6856;51.460;7.158;2023-03-01T12:02:48;9.90;46.90
13569;DHT22;6856;51.460;7.158;2023-03-01T12:06:12;9.90;46.80
13569;DHT22;6856;51.460;7.158;2023-03-01T12:09:17;10.10;46.40
13569;DHT22;6856;51.460;7.158;2023-03-01T12:18:29;10.20;47.00
13569;DHT22;6856;51.460;7.158;2023-03-01T12:21:26;10.30;46.50
13569;DHT22;6856;51.460;7.158;2023-03-01T12:24:25;10.30;46.70
13569;DHT22;6856;51.460;7.158;2023-03-01T12:31:11;10.50;46.60
13569;DHT22;6856;51.460;7.158;2023-03-01T12:34:15;10.60;46.50
13569;DHT22;6856;51.460;7.158;2023-03-01T12:37:14;10.70;46.50
13569;DHT22;6856;51.460;7.158;2023-03-01T12:40:23;10.80;46.40
13569;DHT22;6856;51.460;7.158;2023-03-01T12:43:22;10.80;46.10
13569;DHT22;6856;51.460;7.158;2023-03-01T12:46:19;10.90;46.00
13569;DHT22;6856;51.460;7.158;2023-03-01T12:49:04;11.00;46.20
13569;DHT22;6856;51.460;7.158;2023-03-01T12:51:46;11.00;46.30
13569;DHT22;6856;51.460;7.158;2023-03-01T12:54:30;11.10;46.20
13569;DHT22;6856;51.460;7.158;2023-03-01T12:57:15;11.10;46.00
13569;DHT22;6856;51.460;7.158;2023-03-01T13:00:06;11.30;45.80
13569;DHT22;6856;51.460;7.158;2023-03-01T13:02:56;11.20;45.70
13569;DHT22;6856;51.460;7.158;2023-03-01T13:05:42;11.20;45.50
13569;DHT22;6856;51.460;7.158;2023-03-01T13:08:35;11.30;45.40
13569;DHT22;6856;51.460;7.158;2023-03-01T13:11:17;11.30;45.30
13569;DHT22;6856;51.460;7.158;2023-03-01T13:14:39;11.30;44.90
13569;DHT22;6856;51.460;7.158;2023-03-01T13:17:39;11.30;44.80
13569;DHT22;6856;51.460;7.158;2023-03-01T13:20:18;11.30;44.70
13569;DHT22;6856;51.460;7.158;2023-03-01T13:23:06;11.30;44.80
13569;DHT22;6856;51.460;7.158;2023-03-01T13:26:05;11.30;44.50
13569;DHT22;6856;51.460;7.158;2023-03-01T13:28:50;11.30;44.50
13569;DHT22;6856;51.460;7.158;2023-03-01T13:32:01;11.30;44.90
13569;DHT22;6856;51.460;7.158;2023-03-01T13:34:42;11.30;44.40
13569;DHT22;6856;51.460;7.158;2023-03-01T13:37:35;11.60;44.80
13569;DHT22;6856;51.460;7.158;2023-03-01T13:43:37;11.30;44.10
13569;DHT22;6856;51.460;7.158;2023-03-01T13:46:17;11.30;44.40
13569;DHT22;6856;51.460;7.158;2023-03-01T13:48:57;11.30;44.10
13569;DHT22;6856;51.460;7.158;2023-03-01T13:51:31;11.30;43.90
13569;DHT22;6856;51.460;7.158;2023-03-01T13:54:09;11.30;44.00
13569;DHT22;6856;51.460;7.158;2023-03-01T13:56:45;11.20;44.10
13569;DHT22;6856;51.460;7.158;2023-03-01T13:59:21;11.20;44.00
13569;DHT22;6856;51.460;7.158;2023-03-01T14:01:59;11.20;44.00
13569;DHT22;6856;51.460;7.158;2023-03-01T14:04:35;11.20;44.00
13569;DHT22;6856;51.460;7.158;2023-03-01T14:07:11;11.20;43.90
13569;DHT22;6856;51.460;7.158;2023-03-01T14:09:53;11.10;43.80
13569;DHT22;6856;51.460;7.158;2023-03-01T14:12:40;11.10;43.90
13569;DHT22;6856;51.460;7.158;2023-03-01T14:15:21;11.10;43.60
13569;DHT22;6856;51.460;7.158;2023-03-01T14:18:04;10.70;43.60
13569;DHT22;6856;51.460;7.158;2023-03-01T14:20:45;11.00;43.60
13569;DHT22;6856;51.460;7.158;2023-03-01T14:23:24;11.00;43.60
13569;DHT22;6856;51.460;7.158;2023-03-01T14:25:59;11.00;43.90
13569;DHT22;6856;51.460;7.158;2023-03-01T14:28:35;11.00;43.80
13569;DHT22;6856;51.460;7.158;2023-03-01T14:31:32;11.00;43.80
13569;DHT22;6856;51.460;7.158;2023-03-01T14:34:24;11.00;43.30
13569;DHT22;6856;51.460;7.158;2023-03-01T14:37:11;10.90;43.40
13569;DHT22;6856;51.460;7.158;2023-03-01T14:39:53;10.90;43.30
13569;DHT22;6856;51.460;7.158;2023-03-01T14:42:30;10.90;43.50
13569;DHT22;6856;51.460;7.158;2023-03-01T14:45:12;10.80;43.30
13569;DHT22;6856;51.460;7.158;2023-03-01T14:47:47;10.80;43.20
13569;DHT22;6856;51.460;7.158;2023-03-01T14:50:26;10.80;43.20
13569;DHT22;6856;51.460;7.158;2023-03-01T14:53:05;10.70;43.20
13569;DHT22;6856;51.460;7.158;2023-03-01T14:55:42;10.70;43.30
13569;DHT22;6856;51.460;7.158;2023-03-01T14:58:22;10.70;43.40
13569;DHT22;6856;51.460;7.158;2023-03-01T15:01:00;10.70;43.40
13569;DHT22;6856;51.460;7.158;2023-03-01T15:03:38;10.60;43.40
13569;DHT22;6856;51.460;7.158;2023-03-01T15:06:18;10.90;43.70
13569;DHT22;6856;51.460;7.158;2023-03-01T15:08:55;10.60;43.40
13569;DHT22;6856;51.460;7.158;2023-03-01T15:11:32;10.50;43.20
13569;DHT22;6856;51.460;7.158;2023-03-01T15:14:27;10.50;43.40
13569;DHT22;6856;51.460;7.158;2023-03-01T15:17:23;10.50;43.40
13569;DHT22;6856;51.460;7.158;2023-03-01T15:20:05;10.40;43.40
13569;DHT22;6856;51.460;7.158;2023-03-01T15:22:49;10.40;43.50
13569;DHT22;6856;51.460;7.158;2023-03-01T15:25:26;10.40;43.50
13569;DHT22;6856;51.460;7.158;2023-03-01T15:28:02;10.30;43.60
13569;DHT22;6856;51.460;7.158;2023-03-01T15:30:36;10.30;43.60
13569;DHT22;6856;51.460;7.158;2023-03-01T15:33:18;10.30;43.60
13569;DHT22;6856;51.460;7.158;2023-03-01T15:36:01;10.20;43.30
13569;DHT22;6856;51.460;7.158;2023-03-01T15:38:52;10.20;43.40
13569;DHT22;6856;51.460;7.158;2023-03-01T15:41:30;10.20;43.10
13569;DHT22;6856;51.460;7.158;2023-03-01T15:44:15;10.20;43.30
13569;DHT22;6856;51.460;7.158;2023-03-01T15:46:50;10.20;43.30
13569;DHT22;6856;51.460;7.158;2023-03-01T15:49:35;10.10;43.40
13569;DHT22;6856;51.460;7.158;2023-03-01T15:52:28;10.10;43.40
13569;DHT22;6856;51.460;7.158;2023-03-01T15:55:16;10.10;43.60
13569;DHT22;6856;51.460;7.158;2023-03-01T15:57:59;10.10;43.50
13569;DHT22;6856;51.460;7.158;2023-03-01T16:00:35;10.10;43.40
13569;DHT22;6856;51.460;7.158;2023-03-01T16:03:29;10.10;43.50
13569;DHT22;6856;51.460;7.158;2023-03-01T16:06:03;10.10;44.10
13569;DHT22;6856;51.460;7.158;2023-03-01T16:08:37;10.10;43.40
13569;DHT22;6856;51.460;7.158;2023-03-01T16:11:16;10.00;43.20
13569;DHT22;6856;51.460;7.158;2023-03-01T16:13:53;10.00;43.00
13569;DHT22;6856;51.460;7.158;2023-03-01T16:16:28;10.00;43.00
13569;DHT22;6856;51.460;7.158;2023-03-01T16:19:02;9.90;43.00
13569;DHT22;6856;51.460;7.158;2023-03-01T16:21:36;9.90;43.00
13569;DHT22;6856;51.460;7.158;2023-03-01T16:24:10;9.80;43.00
13569;DHT22;6856;51.460;7.158;2023-03-01T16:26:44;9.80;43.10
13569;DHT22;6856;51.460;7.158;2023-03-01T16:29:19;9.80;43.00
13569;DHT22;6856;51.460;7.158;2023-03-01T16:31:52;9.70;43.00
13569;DHT22;6856;51.460;7.158;2023-03-01T16:34:26;9.70;42.90
13569;DHT22;6856;51.460;7.158;2023-03-01T16:37:00;9.60;42.70
13569;DHT22;6856;51.460;7.158;2023-03-01T16:39:34;9.60;42.50
13569;DHT22;6856;51.460;7.158;2023-03-01T16:42:12;9.80;42.60
13569;DHT22;6856;51.460;7.158;2023-03-01T16:44:48;9.50;42.40
13569;DHT22;6856;51.460;7.158;2023-03-01T16:47:21;9.40;42.40
13569;DHT22;6856;51.460;7.158;2023-03-01T16:49:55;9.40;42.40
13569;DHT22;6856;51.460;7.158;2023-03-01T16:52:29;9.30;42.50
13569;DHT22;6856;51.460;7.158;2023-03-01T16:55:03;9.20;42.40
13569;DHT22;6856;51.460;7.158;2023-03-01T16:57:39;9.20;42.50
13569;DHT22;6856;51.460;7.158;2023-03-01T17:00:16;9.10;42.50
13569;DHT22;6856;51.460;7.158;2023-03-01T17:02:50;9.10;42.50
13569;DHT22;6856;51.460;7.158;2023-03-01T17:05:25;9.30;42.60
13569;DHT22;6856;51.460;7.158;2023-03-01T17:07:59;9.00;42.60
13569;DHT22;6856;51.460;7.158;2023-03-01T17:10:33;8.90;42.50
13569;DHT22;6856;51.460;7.158;2023-03-01T17:13:07;8.90;42.50
13569;DHT22;6856;51.460;7.158;2023-03-01T17:15:43;8.80;42.70
13569;DHT22;6856;51.460;7.158;2023-03-01T17:18:16;8.80;42.70
13569;DHT22;6856;51.460;7.158;2023-03-01T17:20:50;8.70;42.70
13569;DHT22;6856;51.460;7.158;2023-03-01T17:23:24;8.60;42.80
13569;DHT22;6856;51.460;7.158;2023-03-01T17:25:58;8.60;42.90
13569;DHT22;6856;51.460;7.158;2023-03-01T17:28:34;8.60;42.90
13569;DHT22;6856;51.460;7.158;2023-03-01T17:31:11;8.60;43.00
13569;DHT22;6856;51.460;7.158;2023-03-01T17:33:45;8.50;42.90